createdAt,value
2022-07-26T00:01:06.438Z,1.10
2022-07-26T00:03:34.744Z,0.70
2022-07-26T00:06:03.012Z,0.87
2022-07-26T00:08:31.306Z,0.60
2022-07-26T00:11:00.957Z,0.70
2022-07-26T00:13:35.993Z,0.50
2022-07-26T00:16:04.715Z,0.73
2022-07-26T00:18:33.033Z,0.70
2022-07-26T00:21:01.346Z,0.70
2022-07-26T00:23:29.631Z,0.73
2022-07-26T00:25:58.048Z,0.40
2022-07-26T00:28:27.680Z,0.70
2022-07-26T00:30:55.912Z,0.63
2022-07-26T00:33:24.151Z,0.40
2022-07-26T00:35:52.410Z,0.60
2022-07-26T00:38:20.659Z,0.60
2022-07-26T00:40:48.929Z,0.40
2022-07-26T00:43:17.211Z,0.43
2022-07-26T00:45:46.961Z,0.53
2022-07-26T00:48:15.297Z,0.40
2022-07-26T00:50:44.006Z,0.43
2022-07-26T00:53:12.256Z,0.63
2022-07-26T00:55:40.583Z,0.60
2022-07-26T00:58:08.874Z,0.67
2022-07-26T01:00:37.113Z,0.80
2022-07-26T01:03:06.804Z,0.40
2022-07-26T01:05:35.578Z,0.40
2022-07-26T01:08:03.813Z,0.60
2022-07-26T01:10:32.071Z,0.50
2022-07-26T01:13:00.517Z,0.43
2022-07-26T01:15:28.809Z,0.63
2022-07-26T01:17:57.065Z,0.50
2022-07-26T01:20:26.680Z,0.37
2022-07-26T01:22:56.298Z,0.50
2022-07-26T01:25:30.429Z,0.50
2022-07-26T01:27:58.675Z,0.80
2022-07-26T01:30:26.923Z,0.60
2022-07-26T01:32:55.206Z,0.60
2022-07-26T01:35:23.489Z,0.60
2022-07-26T01:37:51.995Z,0.60
2022-07-26T01:40:21.618Z,0.50
2022-07-26T01:42:49.864Z,0.50
2022-07-26T01:45:18.162Z,0.63
2022-07-26T01:47:50.077Z,0.60
2022-07-26T01:50:18.436Z,0.53
2022-07-26T01:52:46.714Z,0.70
2022-07-26T01:55:14.957Z,0.83
2022-07-26T01:57:45.867Z,1.00
2022-07-26T02:00:14.605Z,0.50
2022-07-26T02:02:43.023Z,1.00
2022-07-26T02:05:11.403Z,0.67
2022-07-26T02:07:42.571Z,0.53
2022-07-26T02:10:13.619Z,0.70
2022-07-26T02:12:42.890Z,0.50
2022-07-26T02:15:15.024Z,0.77
2022-07-26T02:17:43.395Z,0.77
2022-07-26T02:20:11.917Z,0.83
2022-07-26T02:22:40.226Z,1.07
2022-07-26T02:25:08.717Z,0.83
2022-07-26T02:27:36.989Z,1.17
2022-07-26T02:30:05.477Z,0.70
2022-07-26T02:32:35.168Z,0.90
2022-07-26T02:35:03.439Z,0.90
2022-07-26T02:37:31.704Z,1.13
2022-07-26T02:40:06.261Z,1.17
2022-07-26T02:42:34.670Z,1.00
2022-07-26T02:45:02.924Z,0.87
2022-07-26T02:47:32.933Z,1.10
2022-07-26T02:50:02.612Z,1.10
2022-07-26T02:52:30.907Z,1.47
2022-07-26T02:54:59.170Z,1.57
2022-07-26T02:57:27.721Z,1.63
2022-07-26T02:59:56.523Z,1.10
2022-07-26T03:02:24.851Z,1.33
2022-07-26T03:04:53.151Z,1.27
2022-07-26T03:07:22.786Z,1.30
2022-07-26T03:09:51.066Z,1.23
2022-07-26T03:12:19.362Z,1.67
2022-07-26T03:14:47.643Z,2.40
2022-07-26T03:17:15.932Z,1.73
2022-07-26T03:19:44.171Z,2.83
2022-07-26T03:22:13.266Z,2.70
2022-07-26T03:24:42.923Z,2.60
2022-07-26T03:27:11.184Z,2.40
2022-07-26T03:29:39.432Z,2.50
2022-07-26T03:32:08.910Z,2.80
2022-07-26T03:34:37.254Z,2.60
2022-07-26T03:37:05.482Z,1.93
2022-07-26T03:39:33.772Z,2.30
2022-07-26T03:42:03.408Z,2.40
2022-07-26T03:44:31.640Z,2.57
2022-07-26T03:47:00.051Z,2.90
2022-07-26T03:49:28.361Z,3.40
2022-07-26T03:51:56.669Z,2.37
2022-07-26T03:54:24.938Z,3.70
2022-07-26T03:56:52.321Z,3.70
2022-07-26T03:59:24.064Z,3.30
2022-07-26T04:01:52.408Z,2.87
2022-07-26T04:04:25.472Z,1.97
2022-07-26T04:06:56.495Z,2.50
2022-07-26T04:09:24.837Z,2.63
2022-07-26T04:11:53.169Z,2.70
2022-07-26T04:14:22.839Z,3.23
2022-07-26T04:16:51.171Z,2.80
2022-07-26T04:19:19.481Z,2.80
2022-07-26T04:21:47.750Z,2.77
2022-07-26T04:24:16.124Z,3.10
2022-07-26T04:26:44.402Z,2.57
2022-07-26T04:29:12.780Z,2.93
2022-07-26T04:31:42.442Z,3.33
2022-07-26T04:34:11.135Z,2.50
2022-07-26T04:36:39.725Z,2.80
2022-07-26T04:39:07.979Z,2.33
2022-07-26T04:41:36.272Z,2.23
2022-07-26T04:44:04.790Z,2.10
2022-07-26T04:46:33.291Z,2.67
2022-07-26T04:49:03.001Z,2.23
2022-07-26T04:51:31.324Z,1.83
2022-07-26T04:53:59.824Z,2.00
2022-07-26T04:56:28.830Z,1.90
2022-07-26T04:58:57.136Z,1.93
2022-07-26T05:01:25.520Z,1.60
2022-07-26T05:03:53.823Z,2.37
2022-07-26T05:06:23.433Z,1.90
2022-07-26T05:08:52.381Z,1.53
2022-07-26T05:11:20.860Z,2.00
2022-07-26T05:13:49.156Z,2.13
2022-07-26T05:16:17.492Z,1.13
2022-07-26T05:18:49.286Z,1.77
2022-07-26T05:21:18.251Z,1.83
2022-07-26T05:23:47.878Z,1.43
2022-07-26T05:26:16.230Z,1.50
2022-07-26T05:28:44.505Z,1.50
2022-07-26T05:31:12.884Z,1.03
2022-07-26T05:33:41.221Z,1.17
2022-07-26T05:36:09.784Z,1.43
2022-07-26T05:38:38.060Z,1.20
2022-07-26T05:41:07.932Z,1.27
2022-07-26T05:43:40.924Z,1.00
2022-07-26T05:46:10.537Z,1.47
2022-07-26T05:48:39.000Z,1.20
2022-07-26T05:51:07.334Z,0.90
2022-07-26T05:53:35.625Z,1.00
2022-07-26T05:56:03.931Z,1.07
2022-07-26T05:58:33.540Z,0.90
2022-07-26T06:01:01.813Z,0.90
2022-07-26T06:03:32.050Z,0.70
2022-07-26T06:06:00.373Z,0.70
2022-07-26T06:08:28.827Z,0.80
2022-07-26T06:10:57.160Z,0.70
2022-07-26T06:13:25.462Z,0.57
2022-07-26T06:15:55.076Z,0.70
2022-07-26T06:18:23.414Z,0.70
2022-07-26T06:20:51.677Z,0.33
2022-07-26T06:23:34.028Z,0.67
2022-07-26T06:26:03.189Z,0.67
2022-07-26T06:28:31.447Z,0.67
2022-07-26T06:31:01.067Z,0.50
2022-07-26T06:33:29.405Z,0.60
2022-07-26T06:35:57.771Z,0.80
2022-07-26T06:38:26.057Z,0.90
2022-07-26T06:40:54.335Z,0.93
2022-07-26T06:43:22.629Z,0.90
2022-07-26T06:45:50.984Z,0.67
2022-07-26T06:48:20.660Z,0.57
2022-07-26T06:50:50.213Z,0.70
2022-07-26T06:53:18.471Z,0.43
2022-07-26T06:55:46.726Z,0.53
2022-07-26T06:58:15.026Z,0.60
2022-07-26T07:00:44.084Z,0.77
2022-07-26T07:03:12.433Z,0.50
2022-07-26T07:05:45.315Z,0.90
2022-07-26T07:08:17.674Z,0.50
2022-07-26T07:10:46.309Z,0.37
2022-07-26T07:13:14.644Z,0.30
2022-07-26T07:15:42.908Z,0.80
2022-07-26T07:18:11.917Z,0.60
2022-07-26T07:20:41.761Z,0.37
2022-07-26T07:23:10.042Z,0.47
2022-07-26T07:25:38.332Z,0.47
2022-07-26T07:28:08.481Z,0.50
2022-07-26T07:30:36.788Z,0.50
2022-07-26T07:33:07.299Z,0.47
2022-07-26T07:35:35.602Z,0.30
2022-07-26T07:38:05.797Z,0.67
2022-07-26T07:40:34.389Z,0.60
2022-07-26T07:43:02.681Z,0.27
2022-07-26T07:45:30.970Z,0.30
2022-07-26T07:47:59.296Z,0.50
2022-07-26T07:50:28.535Z,0.43
2022-07-26T07:52:59.054Z,0.50
2022-07-26T07:55:46.761Z,0.30
2022-07-26T07:58:15.767Z,0.30
2022-07-26T08:00:45.846Z,0.50
2022-07-26T08:03:18.464Z,0.30
2022-07-26T08:05:49.760Z,0.43
2022-07-26T08:08:19.196Z,0.40
2022-07-26T08:10:53.266Z,0.50
2022-07-26T08:13:22.007Z,0.40
2022-07-26T08:15:50.653Z,0.33
2022-07-26T08:18:22.217Z,0.60
2022-07-26T08:20:51.184Z,0.57
2022-07-26T08:23:19.596Z,0.27
2022-07-26T08:25:56.029Z,0.60
2022-07-26T08:31:15.259Z,0.43
2022-07-26T08:33:45.869Z,0.40
2022-07-26T08:36:14.922Z,0.30
2022-07-26T08:38:43.249Z,0.40
2022-07-26T08:41:11.537Z,0.43
2022-07-26T08:43:51.024Z,0.30
2022-07-26T08:46:25.223Z,0.20
2022-07-26T08:48:54.046Z,0.10
2022-07-26T08:51:22.437Z,0.47
2022-07-26T08:53:50.728Z,0.60
2022-07-26T08:56:19.002Z,0.20
2022-07-26T08:58:48.655Z,0.20
2022-07-26T09:01:17.194Z,0.50
2022-07-26T09:03:46.107Z,0.30
2022-07-26T09:06:18.056Z,0.20
2022-07-26T09:08:46.457Z,0.20
2022-07-26T09:11:27.598Z,0.20
2022-07-26T09:13:58.264Z,0.30
2022-07-26T09:16:26.685Z,0.20
2022-07-26T09:18:55.064Z,0.20
2022-07-26T09:21:29.970Z,0.30
2022-07-26T09:23:58.534Z,0.30
2022-07-26T09:26:26.920Z,0.33
2022-07-26T09:29:05.056Z,0.30
2022-07-26T09:31:33.458Z,0.20
2022-07-26T09:34:01.791Z,0.33
2022-07-26T09:36:30.185Z,0.30
2022-07-26T09:38:59.139Z,0.20
2022-07-26T09:41:27.999Z,0.20
2022-07-26T09:43:56.571Z,0.20
2022-07-26T09:46:26.768Z,0.27
2022-07-26T09:49:12.326Z,0.37
2022-07-26T09:51:41.349Z,0.53
2022-07-26T09:54:10.196Z,0.20
2022-07-26T09:56:45.509Z,0.20
2022-07-26T09:59:14.224Z,0.27
2022-07-26T10:01:43.888Z,0.30
2022-07-26T10:04:12.555Z,0.33
2022-07-26T10:06:41.182Z,0.30
2022-07-26T10:09:09.485Z,0.33
2022-07-26T10:11:38.811Z,0.10
2022-07-26T10:14:25.875Z,0.50
2022-07-26T10:16:55.521Z,0.50
2022-07-26T10:19:41.790Z,0.20
2022-07-26T10:22:30.466Z,0.50
2022-07-26T10:24:59.121Z,0.50
2022-07-26T10:27:39.274Z,0.30
2022-07-26T10:30:23.121Z,0.20
2022-07-26T10:33:00.451Z,0.20
2022-07-26T10:35:32.585Z,0.20
2022-07-26T10:38:01.085Z,0.47
2022-07-26T10:40:31.069Z,0.27
2022-07-26T10:43:37.782Z,0.20
2022-07-26T10:46:12.011Z,0.27
2022-07-26T10:48:49.782Z,0.20
2022-07-26T10:51:25.829Z,0.30
2022-07-26T10:54:00.878Z,0.30
2022-07-26T10:56:33.149Z,0.20
2022-07-26T10:59:02.110Z,0.20
2022-07-26T11:01:34.890Z,0.20
2022-07-26T11:04:04.639Z,0.10
2022-07-26T11:06:32.912Z,0.20
2022-07-26T11:09:01.192Z,0.17
2022-07-26T11:11:30.412Z,0.20
2022-07-26T11:14:08.930Z,0.10
2022-07-26T11:16:41.210Z,0.10
2022-07-26T11:19:17.671Z,0.10
2022-07-26T11:21:46.063Z,0.30
2022-07-26T11:24:14.783Z,0.20
2022-07-26T11:26:43.300Z,0.20
2022-07-26T11:29:16.813Z,0.20
2022-07-26T11:31:50.953Z,0.10
2022-07-26T11:34:29.890Z,0.67
2022-07-26T11:36:58.577Z,0.20
2022-07-26T11:39:27.149Z,0.20
2022-07-26T11:41:58.594Z,0.40
2022-07-26T11:44:26.852Z,0.20
2022-07-26T11:46:56.050Z,0.20
2022-07-26T11:49:41.387Z,0.20
2022-07-26T11:52:14.404Z,0.20
2022-07-26T11:54:46.123Z,0.20
2022-07-26T11:57:14.459Z,0.20
2022-07-26T11:59:42.754Z,0.27
2022-07-26T12:02:11.016Z,0.33
2022-07-26T12:04:40.030Z,0.20
2022-07-26T12:07:10.529Z,0.40
2022-07-26T12:09:40.631Z,0.20
2022-07-26T12:12:09.390Z,0.20
2022-07-26T12:14:38.095Z,0.10
2022-07-26T12:17:12.709Z,0.13
2022-07-26T12:19:41.308Z,0.30
2022-07-26T12:22:12.030Z,0.40
2022-07-26T12:24:44.477Z,0.10
2022-07-26T12:27:13.857Z,0.30
2022-07-26T12:29:43.137Z,0.20
2022-07-26T12:32:12.948Z,0.10
2022-07-26T12:34:41.653Z,0.47
2022-07-26T12:37:17.133Z,0.20
2022-07-26T12:40:00.823Z,0.10
2022-07-26T12:42:33.471Z,0.30
2022-07-26T12:45:02.884Z,0.20
2022-07-26T12:47:31.185Z,0.20
2022-07-26T12:50:00.569Z,0.10
2022-07-26T12:52:28.836Z,0.20
2022-07-26T12:54:58.560Z,0.53
2022-07-26T12:57:27.264Z,0.20
2022-07-26T12:59:55.732Z,0.17
2022-07-26T13:02:24.027Z,0.20
2022-07-26T13:04:56.819Z,0.10
2022-07-26T13:07:28.128Z,0.30
2022-07-26T13:10:29.968Z,0.43
2022-07-26T13:12:46.188Z,0.20
2022-07-26T13:15:14.516Z,0.20
2022-07-26T13:17:42.814Z,0.30
2022-07-26T13:20:11.260Z,0.10
2022-07-26T13:22:39.592Z,0.20
2022-07-26T13:25:09.661Z,0.20
2022-07-26T13:27:44.324Z,0.63
2022-07-26T13:30:13.867Z,0.20
2022-07-26T13:32:42.176Z,0.17
2022-07-26T13:35:10.467Z,0.17
2022-07-26T13:37:39.454Z,0.13
2022-07-26T13:40:09.989Z,0.47
2022-07-26T13:42:38.395Z,0.30
2022-07-26T13:45:07.040Z,0.10
2022-07-26T13:47:35.355Z,0.40
2022-07-26T13:50:03.626Z,0.20
2022-07-26T13:52:31.866Z,0.17
2022-07-26T13:55:00.153Z,0.20
2022-07-26T13:57:48.084Z,0.20
2022-07-26T14:00:18.142Z,0.53
2022-07-26T14:02:46.477Z,0.30
2022-07-26T14:05:14.982Z,0.60
2022-07-26T14:07:43.627Z,0.20
2022-07-26T14:10:12.047Z,0.40
2022-07-26T14:12:41.915Z,0.43
2022-07-26T14:15:15.176Z,0.13
2022-07-26T14:17:47.126Z,0.20
2022-07-26T14:20:17.150Z,0.13
2022-07-26T14:22:45.541Z,0.30
2022-07-26T14:25:13.892Z,0.20
2022-07-26T14:27:43.530Z,0.40
2022-07-26T14:30:12.240Z,0.60
2022-07-26T14:32:40.498Z,0.60
2022-07-26T14:35:09.387Z,0.83
2022-07-26T14:37:45.083Z,0.77
2022-07-26T14:40:14.628Z,0.60
2022-07-26T14:42:44.241Z,1.20
2022-07-26T14:45:12.616Z,0.90
2022-07-26T14:47:40.996Z,0.90
2022-07-26T14:50:09.605Z,1.00
2022-07-26T14:52:38.468Z,1.23
2022-07-26T14:55:07.336Z,1.17
2022-07-26T14:57:39.623Z,1.20
2022-07-26T15:00:10.892Z,1.23
2022-07-26T15:02:39.951Z,1.47
2022-07-26T15:05:08.464Z,1.33
2022-07-26T15:07:36.769Z,1.30
2022-07-26T15:10:05.173Z,1.40
2022-07-26T15:12:33.507Z,1.23
2022-07-26T15:15:01.837Z,1.37
2022-07-26T15:17:31.516Z,1.10
2022-07-26T15:19:59.824Z,1.17
2022-07-26T15:22:28.113Z,1.30
2022-07-26T15:24:56.351Z,1.10
2022-07-26T15:27:24.684Z,1.13
2022-07-26T15:29:52.942Z,1.13
2022-07-26T15:32:21.704Z,1.23
2022-07-26T15:34:51.429Z,1.27
2022-07-26T15:37:19.868Z,1.20
2022-07-26T15:39:48.143Z,1.10
2022-07-26T15:42:16.770Z,1.40
2022-07-26T15:44:46.649Z,1.20
2022-07-26T15:47:15.564Z,1.23
2022-07-26T15:50:00.575Z,1.33
2022-07-26T15:52:28.886Z,1.30
2022-07-26T15:54:57.152Z,1.20
2022-07-26T15:57:25.479Z,1.83
2022-07-26T15:59:53.745Z,1.20
2022-07-26T16:02:22.059Z,1.40
2022-07-26T16:04:50.419Z,2.00
2022-07-26T16:07:20.018Z,1.40
2022-07-26T16:09:48.302Z,1.57
2022-07-26T16:12:16.608Z,1.57
2022-07-26T16:14:45.005Z,1.30
2022-07-26T16:17:13.260Z,2.17
2022-07-26T16:19:41.563Z,1.93
2022-07-26T16:22:09.878Z,1.40
2022-07-26T16:24:39.491Z,1.70
2022-07-26T16:27:07.800Z,1.97
2022-07-26T16:29:36.064Z,1.50
2022-07-26T16:32:04.400Z,1.83
2022-07-26T16:34:34.866Z,1.60
2022-07-26T16:37:03.165Z,1.90
2022-07-26T16:39:31.443Z,1.30
2022-07-26T16:42:06.427Z,1.80
2022-07-26T16:44:36.092Z,1.53
2022-07-26T16:47:04.697Z,1.63
2022-07-26T16:49:33.100Z,1.47
2022-07-26T16:52:01.454Z,1.50
2022-07-26T16:54:29.771Z,1.90
2022-07-26T16:56:58.062Z,1.53
2022-07-26T16:59:28.579Z,1.33
2022-07-26T17:02:01.544Z,1.57
2022-07-26T17:04:31.099Z,1.33
2022-07-26T17:07:23.342Z,1.77
2022-07-26T17:09:48.289Z,1.23
2022-07-26T17:12:16.690Z,1.00
2022-07-26T17:14:46.326Z,1.20
2022-07-26T17:17:14.582Z,2.00
2022-07-26T17:19:42.879Z,0.70
2022-07-26T17:22:11.150Z,1.00
2022-07-26T17:24:39.415Z,1.13
2022-07-26T17:27:07.728Z,0.80
2022-07-26T17:29:36.015Z,1.43
2022-07-26T17:32:05.858Z,0.93
2022-07-26T17:34:34.756Z,1.30
2022-07-26T17:37:05.725Z,1.03
2022-07-26T17:39:52.042Z,0.87
2022-07-26T17:42:21.260Z,0.93
2022-07-26T17:44:49.575Z,0.80
2022-07-26T17:47:29.022Z,1.10
2022-07-26T17:50:14.065Z,0.83
2022-07-26T17:52:47.380Z,1.10
2022-07-26T17:55:15.663Z,0.80
2022-07-26T17:57:43.954Z,1.00
2022-07-26T18:00:12.698Z,0.93
2022-07-26T18:02:42.441Z,0.73
2022-07-26T18:05:12.029Z,1.33
2022-07-26T18:07:40.347Z,0.90
2022-07-26T18:10:10.027Z,0.83
2022-07-26T18:12:38.389Z,1.20
2022-07-26T18:15:07.728Z,1.10
2022-07-26T18:17:36.269Z,0.90
2022-07-26T18:20:06.471Z,0.70
2022-07-26T18:22:34.774Z,1.00
2022-07-26T18:25:03.051Z,0.93
2022-07-26T18:27:31.334Z,1.00
2022-07-26T18:29:59.653Z,0.90
2022-07-26T18:32:28.076Z,0.97
2022-07-26T18:34:56.485Z,0.90
2022-07-26T18:37:26.124Z,0.57
2022-07-26T18:39:57.940Z,0.60
2022-07-26T18:42:26.922Z,0.77
2022-07-26T18:44:55.192Z,0.80
2022-07-26T18:47:23.468Z,0.73
2022-07-26T18:49:51.850Z,0.87
2022-07-26T18:52:28.835Z,0.90
2022-07-26T18:55:06.635Z,1.20
2022-07-26T18:57:35.117Z,1.10
2022-07-26T19:00:03.434Z,0.90
2022-07-26T19:02:31.790Z,0.87
2022-07-26T19:05:00.099Z,0.77
2022-07-26T19:07:28.375Z,0.53
2022-07-26T19:09:58.756Z,0.93
2022-07-26T19:12:28.861Z,1.13
2022-07-26T19:14:59.861Z,0.90
2022-07-26T19:17:30.295Z,0.70
2022-07-26T19:20:01.202Z,1.07
2022-07-26T19:22:30.399Z,1.20
2022-07-26T19:24:58.671Z,0.97
2022-07-26T19:27:27.883Z,1.23
2022-07-26T19:29:57.866Z,1.20
2022-07-26T19:32:30.334Z,1.50
2022-07-26T19:35:01.654Z,1.70
2022-07-26T19:37:29.901Z,1.47
2022-07-26T19:40:00.369Z,1.30
2022-07-26T19:42:30.327Z,2.03
2022-07-26T19:44:59.966Z,2.00
2022-07-26T19:47:29.715Z,2.10
2022-07-26T19:49:58.734Z,1.80
2022-07-26T19:52:27.026Z,2.27
2022-07-26T19:54:55.299Z,2.13
2022-07-26T19:57:23.630Z,2.87
2022-07-26T19:59:52.004Z,2.10
2022-07-26T20:02:22.841Z,1.90
2022-07-26T20:04:51.670Z,2.13
2022-07-26T20:07:20.212Z,2.20
2022-07-26T20:09:48.518Z,2.00
2022-07-26T20:12:17.038Z,2.33
2022-07-26T20:14:45.403Z,2.30
2022-07-26T20:17:14.087Z,1.90
2022-07-26T20:19:43.812Z,1.80
2022-07-26T20:22:12.122Z,1.87
2022-07-26T20:24:40.431Z,1.83
2022-07-26T20:27:08.885Z,1.47
2022-07-26T20:29:37.232Z,1.90
2022-07-26T20:32:05.721Z,1.80
2022-07-26T20:34:34.971Z,1.70
2022-07-26T20:37:04.633Z,1.97
2022-07-26T20:39:33.945Z,1.67
2022-07-26T20:42:02.234Z,1.20
2022-07-26T20:44:32.088Z,1.90
2022-07-26T20:47:00.413Z,1.77
2022-07-26T20:49:28.763Z,1.47
2022-07-26T20:51:57.825Z,1.27
2022-07-26T20:54:27.505Z,1.40
2022-07-26T20:56:55.766Z,1.30
2022-07-26T20:59:24.244Z,0.90
2022-07-26T21:01:52.589Z,1.27
2022-07-26T21:04:20.831Z,1.03
2022-07-26T21:06:49.145Z,1.00
2022-07-26T21:09:18.435Z,1.10
2022-07-26T21:11:48.040Z,1.40
2022-07-26T21:14:16.342Z,1.17
2022-07-26T21:16:44.666Z,1.10
2022-07-26T21:19:13.430Z,1.10
2022-07-26T21:21:41.984Z,0.93
2022-07-26T21:24:10.525Z,1.10
2022-07-26T21:26:39.481Z,0.97
2022-07-26T21:29:09.294Z,0.87
2022-07-26T21:31:37.808Z,1.00
2022-07-26T21:34:06.071Z,1.10
2022-07-26T21:36:38.005Z,0.97
2022-07-26T21:39:06.397Z,0.80
2022-07-26T21:41:34.675Z,1.00
2022-07-26T21:44:02.962Z,0.70
2022-07-26T21:46:32.649Z,0.70
2022-07-26T21:49:01.028Z,0.57
2022-07-26T21:51:29.450Z,0.50
2022-07-26T21:53:57.716Z,0.50
2022-07-26T21:56:26.141Z,0.60
2022-07-26T21:58:55.920Z,0.60
2022-07-26T22:01:24.219Z,0.90
2022-07-26T22:03:53.933Z,0.73
2022-07-26T22:06:22.224Z,0.60
2022-07-26T22:08:50.526Z,0.60
2022-07-26T22:11:18.761Z,0.87
2022-07-26T22:13:48.171Z,0.50
2022-07-26T22:16:16.552Z,0.50
2022-07-26T22:18:44.832Z,0.97
2022-07-26T22:21:14.637Z,0.70
2022-07-26T22:23:42.916Z,0.50
2022-07-26T22:26:11.191Z,0.50
2022-07-26T22:28:39.469Z,0.40
2022-07-26T22:31:07.755Z,0.50
2022-07-26T22:33:36.006Z,0.70
2022-07-26T22:36:04.320Z,0.60
2022-07-26T22:38:33.938Z,0.80
2022-07-26T22:41:02.213Z,0.50
2022-07-26T22:43:30.549Z,0.50
2022-07-26T22:45:58.867Z,0.43
2022-07-26T22:48:27.158Z,0.60
2022-07-26T22:50:55.475Z,0.70
2022-07-26T22:53:23.742Z,0.50
2022-07-26T22:55:53.362Z,0.50
2022-07-26T22:58:21.696Z,0.60
2022-07-26T23:00:49.999Z,0.40
2022-07-26T23:03:20.634Z,0.40
2022-07-26T23:05:50.430Z,0.40
2022-07-26T23:11:10.052Z,0.50
2022-07-26T23:13:38.325Z,0.60
2022-07-26T23:16:06.830Z,0.40
2022-07-26T23:18:35.165Z,0.30
2022-07-26T23:21:03.675Z,0.30
2022-07-26T23:23:32.398Z,0.20
2022-07-26T23:26:00.838Z,0.30
2022-07-26T23:28:37.754Z,0.47
2022-07-26T23:31:07.548Z,0.40
2022-07-26T23:33:52.257Z,0.33
2022-07-26T23:36:22.952Z,0.50
2022-07-26T23:38:51.216Z,0.50
2022-07-26T23:41:19.987Z,0.37
2022-07-26T23:43:49.857Z,0.40
2022-07-26T23:46:18.219Z,0.50
2022-07-26T23:48:46.709Z,0.30
2022-07-26T23:51:15.073Z,0.80
2022-07-26T23:53:43.407Z,0.90
2022-07-26T23:56:11.733Z,1.27
2022-07-26T23:58:40.037Z,1.10
